Observation data for Muleshoe on 08/14/2019      Previous  Date  Next       Current Mesonet Observations  Soil Data  Daily Summary Page  Observations in Plain Language
KMUS 140500Z 12007KT 23/16 A3017 RMK A01 T02270160  RH  069%=      5-min Rain = 0
KMUS 140505Z 11007KT 23/16 A3017 RMK A01 T02270160  RH  069%=      5-min Rain = 0
KMUS 140510Z 11007KT 23/16 A3017 RMK A01 T02270160  RH  069%=      5-min Rain = 0
KMUS 140515Z 12007KT 23/16 A3017 RMK A01 T02270160  RH  069%=      5-min Rain = 0
KMUS 140520Z 12007KT 23/16 A3017 RMK A01 T02280161  RH  069%=      5-min Rain = 0
KMUS 140525Z 11007KT 23/16 A3017 RMK A01 T02290162  RH  069%=      5-min Rain = 0
KMUS 140530Z 11007KT 23/16 A3017 RMK A01 T02280163  RH  070%=      5-min Rain = 0
KMUS 140535Z 12006KT 23/16 A3017 RMK A01 T02280163  RH  070%=      5-min Rain = 0
KMUS 140540Z 10006KT 23/16 A3017 RMK A01 T02280164  RH  070%=      5-min Rain = 0
KMUS 140545Z 11007KT 23/16 A3017 RMK A01 T02270164  RH  071%=      5-min Rain = 0
KMUS 140550Z 12006KT 22/16 A3017 RMK A01 T02240164  RH  072%=      5-min Rain = 0
KMUS 140555Z 11006KT 22/17 A3016 RMK A01 T02220165  RH  073%=      5-min Rain = 0
KMUS 140600Z 11006KT 22/17 A3016 RMK A01 T02190165  RH  075%=      5-min Rain = 0
KMUS 140605Z 10005KT 22/17 A3016 RMK A01 T02170165  RH  076%=      5-min Rain = 0
KMUS 140610Z 10005KT 21/17 A3017 RMK A01 T02130165  RH  078%=      5-min Rain = 0
KMUS 140615Z 08005KT 21/17 A3017 RMK A01 T02090165  RH  079%=      5-min Rain = 0
KMUS 140620Z 09006KT 21/17 A3017 RMK A01 T02080165  RH  080%=      5-min Rain = 0
KMUS 140625Z 09005KT 21/17 A3017 RMK A01 T02080166  RH  081%=      5-min Rain = 0
KMUS 140630Z 09006KT 21/17 A3018 RMK A01 T02050166  RH  082%=      5-min Rain = 0
KMUS 140635Z 09006KT 20/17 A3018 RMK A01 T02020166  RH  083%=      5-min Rain = 0
KMUS 140640Z 09007KT 20/17 A3018 RMK A01 T02020165  RH  083%=      5-min Rain = 0
KMUS 140645Z 08007KT 20/17 A3018 RMK A01 T02020165  RH  083%=      5-min Rain = 0
KMUS 140650Z 08008KT 21/17 A3019 RMK A01 T02050166  RH  082%=      5-min Rain = 0
KMUS 140655Z 08007KT 21/17 A3019 RMK A01 T02060166  RH  082%=      5-min Rain = 0
KMUS 140700Z 07007KT 21/17 A3019 RMK A01 T02070166  RH  082%=      5-min Rain = 0
KMUS 140705Z 07006KT 21/17 A302 RMK A01 T02080167  RH  081%=      5-min Rain = 0
KMUS 140710Z 08006KT 21/17 A302 RMK A01 T02080168  RH  081%=      5-min Rain = 0
KMUS 140715Z 08007KT 21/17 A302 RMK A01 T02080168  RH  082%=      5-min Rain = 0
KMUS 140720Z 08008KT 21/17 A302 RMK A01 T02090169  RH  082%=      5-min Rain = 0
KMUS 140725Z 08008KT 21/17 A3019 RMK A01 T02100169  RH  082%=      5-min Rain = 0
KMUS 140730Z 07008KT 21/17 A3019 RMK A01 T02110170  RH  081%=      5-min Rain = 0
KMUS 140735Z 07008KT 21/17 A3019 RMK A01 T02110170  RH  082%=      5-min Rain = 0
KMUS 140740Z 08008KT 21/17 A302 RMK A01 T02110171  RH  082%=      5-min Rain = 0
KMUS 140745Z 08008KT 21/17 A302 RMK A01 T02110171  RH  082%=      5-min Rain = 0
KMUS 140750Z 08008KT 21/17 A302 RMK A01 T02100171  RH  083%=      5-min Rain = 0
KMUS 140755Z 08008KT 21/17 A302 RMK A01 T02090172  RH  083%=      5-min Rain = 0
KMUS 140800Z 09007KT 21/17 A302 RMK A01 T02080172  RH  084%=      5-min Rain = 0
KMUS 140805Z 09007KT 21/17 A302 RMK A01 T02080173  RH  084%=      5-min Rain = 0
KMUS 140810Z 09008KT 21/17 A3019 RMK A01 T02090174  RH  084%=      5-min Rain = 0
KMUS 140815Z 08008KT 21/17 A3019 RMK A01 T02100174  RH  084%=      5-min Rain = 0
KMUS 140820Z 08008KT 21/18 A3019 RMK A01 T02100175  RH  085%=      5-min Rain = 0
KMUS 140825Z 08008KT 21/18 A3019 RMK A01 T02110175  RH  084%=      5-min Rain = 0
KMUS 140830Z 08008KT 21/18 A3019 RMK A01 T02110175  RH  084%=      5-min Rain = 0
KMUS 140835Z 08007KT 21/18 A3018 RMK A01 T02110175  RH  084%=      5-min Rain = 0
KMUS 140840Z 09006KT 21/18 A3018 RMK A01 T02100175  RH  084%=      5-min Rain = 0
KMUS 140845Z 09006KT 21/18 A3018 RMK A01 T02090175  RH  085%=      5-min Rain = 0
KMUS 140850Z 07006KT 21/18 A3019 RMK A01 T02070175  RH  086%=      5-min Rain = 0
KMUS 140855Z 07005KT 21/17 A3019 RMK A01 T02070174  RH  086%=      5-min Rain = 0
KMUS 140900Z 07005KT 21/17 A3019 RMK A01 T02060174  RH  086%=      5-min Rain = 0
KMUS 140905Z 09004KT 21/17 A3019 RMK A01 T02050174  RH  087%=      5-min Rain = 0
KMUS 140910Z 08004KT 20/17 A3019 RMK A01 T02020173  RH  088%=      5-min Rain = 0
KMUS 140915Z 08005KT 20/17 A302 RMK A01 T02000173  RH  089%=      5-min Rain = 0
KMUS 140920Z 07006KT 20/18 A302 RMK A01 T02000175  RH  090%=      5-min Rain = 0
KMUS 140925Z 07007KT 20/18 A3019 RMK A01 T02040175  RH  088%=      5-min Rain = 0
KMUS 140930Z 06008KT 21/17 A3019 RMK A01 T02070174  RH  086%=      5-min Rain = 0
KMUS 140935Z 07007KT 21/17 A3019 RMK A01 T02080174  RH  085%=      5-min Rain = 0
KMUS 140940Z 07006KT 21/17 A302 RMK A01 T02060173  RH  086%=      5-min Rain = 0
KMUS 140945Z 07006KT 20/17 A302 RMK A01 T02040173  RH  086%=      5-min Rain = 0
KMUS 140950Z 07007KT 20/17 A302 RMK A01 T02030173  RH  087%=      5-min Rain = 0
KMUS 140955Z 06007KT 20/17 A302 RMK A01 T02030172  RH  087%=      5-min Rain = 0
KMUS 141000Z 05008KT 20/17 A302 RMK A01 T02030172  RH  087%=      5-min Rain = 0
KMUS 141005Z 05009KT 20/17 A3021 RMK A01 T02020172  RH  087%=      5-min Rain = 0
KMUS 141010Z 05011KT 20/17 A3021 RMK A01 T02030172  RH  086%=      5-min Rain = 0
KMUS 141015Z 05012G18KT 20/17 A3021 RMK A01 T02040171  RH  086%=      5-min Rain = 0
KMUS 141020Z 06013G19KT 20/17 A3021 RMK A01 T02040170  RH  085%=      5-min Rain = 0
KMUS 141025Z 06013KT 20/17 A3021 RMK A01 T02030168  RH  084%=      5-min Rain = 0
KMUS 141030Z 06011KT 20/17 A3022 RMK A01 T02030167  RH  084%=      5-min Rain = 0
KMUS 141035Z 05011KT 20/17 A3022 RMK A01 T02020167  RH  084%=      5-min Rain = 0
KMUS 141040Z 06010KT 20/17 A3023 RMK A01 T02010165  RH  084%=      5-min Rain = 0
KMUS 141045Z 06012KT 20/16 A3023 RMK A01 T02000161  RH  082%=      5-min Rain = 0
KMUS 141050Z 06012KT 20/16 A3023 RMK A01 T02010157  RH  079%=      5-min Rain = 0
KMUS 141055Z 06010G15KT 20/16 A3023 RMK A01 T02010156  RH  079%=      5-min Rain = 0
KMUS 141100Z 06010KT 20/16 A3023 RMK A01 T02000155  RH  079%=      5-min Rain = 0
KMUS 141105Z 06011G17KT 20/15 A3023 RMK A01 T01990152  RH  078%=      5-min Rain = 0
KMUS 141110Z 06010KT 20/15 A3024 RMK A01 T01980150  RH  077%=      5-min Rain = 0
KMUS 141115Z 06009G14KT 20/15 A3024 RMK A01 T01960149  RH  077%=      5-min Rain = 0
KMUS 141120Z 05011KT 20/15 A3024 RMK A01 T01960146  RH  076%=      5-min Rain = 0
KMUS 141125Z 05012KT 20/14 A3025 RMK A01 T01960143  RH  075%=      5-min Rain = 0
KMUS 141130Z 05012KT 20/14 A3025 RMK A01 T01960141  RH  074%=      5-min Rain = 0
KMUS 141135Z 05010KT 20/14 A3025 RMK A01 T01960140  RH  073%=      5-min Rain = 0
KMUS 141140Z 06010KT 20/14 A3025 RMK A01 T01960139  RH  073%=      5-min Rain = 0
KMUS 141145Z 06010KT 20/14 A3025 RMK A01 T01960138  RH  072%=      5-min Rain = 0
KMUS 141150Z 06009KT 20/14 A3026 RMK A01 T01970137  RH  071%=      5-min Rain = 0
KMUS 141155Z 07011KT 20/14 A3026 RMK A01 T01970136  RH  071%=      5-min Rain = 0
KMUS 141200Z 07011KT 20/14 A3025 RMK A01 T01980135  RH  070%=      5-min Rain = 0
KMUS 141205Z 06011KT 20/14 A3025 RMK A01 T01970135  RH  070%=      5-min Rain = 0
KMUS 141210Z 06009KT 20/14 A3025 RMK A01 T01970135  RH  070%=      5-min Rain = 0
KMUS 141215Z 06011KT 20/13 A3025 RMK A01 T01980133  RH  069%=      5-min Rain = 0
KMUS 141220Z 06011G16KT 20/13 A3026 RMK A01 T01980133  RH  069%=      5-min Rain = 0
KMUS 141225Z 07011KT 20/13 A3026 RMK A01 T01980133  RH  069%=      5-min Rain = 0
KMUS 141230Z 07010KT 20/13 A3026 RMK A01 T01980133  RH  069%=      5-min Rain = 0
KMUS 141235Z 05010G15KT 20/13 A3027 RMK A01 T01990133  RH  069%=      5-min Rain = 0
KMUS 141240Z 05011G16KT 20/13 A3028 RMK A01 T01990133  RH  068%=      5-min Rain = 0
KMUS 141245Z 05009KT 20/13 A3028 RMK A01 T02000132  RH  068%=      5-min Rain = 0
KMUS 141250Z 05010G15KT 20/13 A3028 RMK A01 T02010131  RH  067%=      5-min Rain = 0
KMUS 141255Z 04009G14KT 20/13 A3029 RMK A01 T02010132  RH  067%=      5-min Rain = 0
KMUS 141300Z 03009KT 20/13 A3029 RMK A01 T02010132  RH  067%=      5-min Rain = 0
KMUS 141305Z 03008G13KT 20/13 A303 RMK A01 T02020131  RH  066%=      5-min Rain = 0
KMUS 141310Z 04009G15KT 20/13 A3031 RMK A01 T02030132  RH  066%=      5-min Rain = 0
KMUS 141315Z 05012KT 20/13 A3031 RMK A01 T02040131  RH  066%=      5-min Rain = 0
KMUS 141320Z 03012KT 20/13 A3032 RMK A01 T02040132  RH  066%=      5-min Rain = 0
KMUS 141325Z 02011G17KT 21/13 A3032 RMK A01 T02050132  RH  065%=      5-min Rain = 0
KMUS 141330Z 01010G16KT 21/13 A3033 RMK A01 T02060133  RH  065%=      5-min Rain = 0
KMUS 141335Z 01010KT 21/13 A3032 RMK A01 T02070133  RH  065%=      5-min Rain = 0
KMUS 141340Z 01008G13KT 21/13 A3032 RMK A01 T02100134  RH  065%=      5-min Rain = 0
KMUS 141345Z 02012KT 21/13 A3032 RMK A01 T02140132  RH  062%=      5-min Rain = 0
KMUS 141350Z 02012KT 21/13 A3032 RMK A01 T02100129  RH  062%=      5-min Rain = 0
KMUS 141355Z 03011KT 21/13 A3032 RMK A01 T02090129  RH  062%=      5-min Rain = 0
KMUS 141400Z 02009KT 21/13 A3032 RMK A01 T02080128  RH  063%=      5-min Rain = 0
KMUS 141405Z 02009G14KT 21/13 A3032 RMK A01 T02070127  RH  063%=      5-min Rain = 0
KMUS 141410Z 02008KT 21/13 A3032 RMK A01 T02070127  RH  063%=      5-min Rain = 0
KMUS 141415Z 02009KT 21/13 A3032 RMK A01 T02070125  RH  062%=      5-min Rain = 0
KMUS 141420Z 03008KT 21/13 A3032 RMK A01 T02070125  RH  062%=      5-min Rain = 0
KMUS 141425Z 02007KT 21/13 A3032 RMK A01 T02060125  RH  062%=      5-min Rain = 0
KMUS 141430Z 03006KT 21/13 A3032 RMK A01 T02060125  RH  062%=      5-min Rain = 0
KMUS 141435Z 04006KT 21/13 A3032 RMK A01 T02050125  RH  062%=      5-min Rain = 0
KMUS 141440Z 06006KT 21/13 A3031 RMK A01 T02050125  RH  063%=      5-min Rain = 0
KMUS 141445Z 10010KT 21/13 A3029 RMK A01 T02050127  RH  063%=      5-min Rain = 0
KMUS 141450Z 11016G22KT 21/13 A3026 RMK A01 T02050126  RH  063%=      5-min Rain = 0
KMUS 141455Z 12019KT 21/12 A3023 RMK A01 T02080123  RH  061%=      5-min Rain = 0
KMUS 141500Z 12014G19KT 21/12 A3024 RMK A01 T02100122  RH  059%=      5-min Rain = 0
KMUS 141505Z 11011KT 21/12 A3026 RMK A01 T02130120  RH  057%=      5-min Rain = 0
KMUS 141510Z 12011KT 22/12 A3025 RMK A01 T02160121  RH  057%=      5-min Rain = 0
KMUS 141515Z 12011G16KT 22/12 A3025 RMK A01 T02180120  RH  056%=      5-min Rain = 0
KMUS 141520Z 13010KT 22/12 A3025 RMK A01 T02200121  RH  055%=      5-min Rain = 0
KMUS 141525Z 13010KT 22/12 A3025 RMK A01 T02230122  RH  055%=      5-min Rain = 0
KMUS 141530Z 13011G16KT 23/12 A3025 RMK A01 T02250122  RH  054%=      5-min Rain = 0
KMUS 141535Z 13012KT 23/12 A3024 RMK A01 T02270122  RH  053%=      5-min Rain = 0
KMUS 141540Z 13010KT 23/12 A3024 RMK A01 T02300123  RH  053%=      5-min Rain = 0
KMUS 141545Z 14012KT 24/12 A3024 RMK A01 T02360123  RH  051%=      5-min Rain = 0
KMUS 141550Z 13009KT 24/12 A3024 RMK A01 T02420123  RH  049%=      5-min Rain = 0
KMUS 141555Z 13009KT 24/12 A3025 RMK A01 T02430122  RH  048%=      5-min Rain = 0
KMUS 141600Z 12010KT 25/12 A3025 RMK A01 T02450121  RH  048%=      5-min Rain = 0
KMUS 141605Z 13009KT 25/12 A3025 RMK A01 T02510123  RH  047%=      5-min Rain = 0
KMUS 141610Z 15010KT 25/12 A3025 RMK A01 T02530120  RH  045%=      5-min Rain = 0
KMUS 141615Z 14009KT 25/12 A3024 RMK A01 T02530124  RH  046%=      5-min Rain = 0
KMUS 141620Z 14007KT 25/13 A3024 RMK A01 T02540125  RH  046%=      5-min Rain = 0
KMUS 141625Z 14007KT 26/13 A3024 RMK A01 T02560127  RH  047%=      5-min Rain = 0
KMUS 141630Z 11008KT 26/13 A3024 RMK A01 T02640125  RH  044%=      5-min Rain = 0
KMUS 141635Z 10007KT 27/12 A3025 RMK A01 T02690122  RH  042%=      5-min Rain = 0
KMUS 141640Z 09008KT 28/12 A3025 RMK A01 T02750122  RH  040%=      5-min Rain = 0
KMUS 141645Z 08009KT 28/12 A3025 RMK A01 T02760122  RH  040%=      5-min Rain = 0
KMUS 141650Z 06007KT 28/13 A3025 RMK A01 T02790128  RH  041%=      5-min Rain = 0
KMUS 141655Z 06009KT 28/12 A3025 RMK A01 T02810122  RH  039%=      5-min Rain = 0
KMUS 141700Z 06008KT 28/12 A3026 RMK A01 T02780121  RH  039%=      5-min Rain = 0
KMUS 141705Z 06009G17KT 28/12 A3026 RMK A01 T02820123  RH  039%=      5-min Rain = 0
KMUS 141710Z 06010KT 28/12 A3026 RMK A01 T02830116  RH  037%=      5-min Rain = 0
KMUS 141715Z 04010KT 28/12 A3026 RMK A01 T02820121  RH  038%=      5-min Rain = 0
KMUS 141720Z 04010KT 28/12 A3025 RMK A01 T02810119  RH  038%=      5-min Rain = 0
KMUS 141725Z 03009KT 28/12 A3026 RMK A01 T02810118  RH  038%=      5-min Rain = 0
KMUS 141730Z 04011KT 29/11 A3026 RMK A01 T02850112  RH  035%=      5-min Rain = 0
KMUS 141735Z 04012KT 29/11 A3026 RMK A01 T02850106  RH  034%=      5-min Rain = 0
KMUS 141740Z 02011G16KT 29/12 A3026 RMK A01 T02860117  RH  036%=      5-min Rain = 0
KMUS 141745Z 03011KT 29/11 A3026 RMK A01 T02860112  RH  035%=      5-min Rain = 0
KMUS 141750Z 02013KT 29/11 A3026 RMK A01 T02850111  RH  035%=      5-min Rain = 0
KMUS 141755Z 03009KT 29/12 A3026 RMK A01 T02880118  RH  036%=      5-min Rain = 0
KMUS 141800Z 03009G17KT 29/12 A3026 RMK A01 T02890119  RH  036%=      5-min Rain = 0
KMUS 141805Z 02009G15KT 29/12 A3026 RMK A01 T02910117  RH  035%=      5-min Rain = 0
KMUS 141810Z 01008G13KT 29/12 A3026 RMK A01 T02910116  RH  035%=      5-min Rain = 0
KMUS 141815Z 00009KT 29/12 A3026 RMK A01 T02930121  RH  036%=      5-min Rain = 0
KMUS 141820Z 34008KT 29/12 A3026 RMK A01 T02940124  RH  037%=      5-min Rain = 0
KMUS 141825Z 34006KT 29/13 A3025 RMK A01 T02930129  RH  038%=      5-min Rain = 0
KMUS 141830Z 02006KT 30/13 A3025 RMK A01 T02950126  RH  037%=      5-min Rain = 0
KMUS 141835Z 01008G15KT 30/12 A3025 RMK A01 T02970124  RH  036%=      5-min Rain = 0
KMUS 141840Z 03009G15KT 30/11 A3025 RMK A01 T03010114  RH  033%=      5-min Rain = 0
KMUS 141845Z 03007KT 30/12 A3025 RMK A01 T02980119  RH  034%=      5-min Rain = 0
KMUS 141850Z 02007KT 30/12 A3024 RMK A01 T03010121  RH  034%=      5-min Rain = 0
KMUS 141855Z 04008KT 31/12 A3024 RMK A01 T03060119  RH  033%=      5-min Rain = 0
KMUS 141900Z 00009G16KT 31/12 A3024 RMK A01 T03050123  RH  034%=      5-min Rain = 0
KMUS 141905Z 03011KT 31/12 A3023 RMK A01 T03050122  RH  034%=      5-min Rain = 0
KMUS 141910Z 03009KT 31/12 A3023 RMK A01 T03050122  RH  034%=      5-min Rain = 0
KMUS 141915Z 35005KT 30/12 A3023 RMK A01 T03030122  RH  034%=      5-min Rain = 0
KMUS 141920Z 01008G14KT 31/12 A3023 RMK A01 T03070120  RH  033%=      5-min Rain = 0
KMUS 141925Z 05009KT 31/12 A3023 RMK A01 T03080118  RH  032%=      5-min Rain = 0
KMUS 141930Z 04006KT 31/12 A3023 RMK A01 T03090121  RH  033%=      5-min Rain = 0
KMUS 141935Z 01008G13KT 31/12 A3022 RMK A01 T03090121  RH  033%=      5-min Rain = 0
KMUS 141940Z 34008KT 31/12 A3022 RMK A01 T03090116  RH  032%=      5-min Rain = 0
KMUS 141945Z 03007G13KT 31/12 A3022 RMK A01 T03090115  RH  031%=      5-min Rain = 0
KMUS 141950Z 04004KT 31/11 A3021 RMK A01 T03110114  RH  031%=      5-min Rain = 0
KMUS 141955Z 08007KT 31/11 A3021 RMK A01 T03100111  RH  031%=      5-min Rain = 0
KMUS 142000Z 08004KT 31/11 A3021 RMK A01 T03120111  RH  030%=      5-min Rain = 0
KMUS 142005Z 03007KT 31/12 A3021 RMK A01 T03140116  RH  031%=      5-min Rain = 0
KMUS 142010Z 04009G14KT 31/11 A302 RMK A01 T03110113  RH  031%=      5-min Rain = 0
KMUS 142015Z 05010KT 31/12 A302 RMK A01 T03120119  RH  032%=      5-min Rain = 0
KMUS 142020Z 04007KT 31/12 A302 RMK A01 T03080115  RH  032%=      5-min Rain = 0
KMUS 142025Z 03005KT 31/11 A302 RMK A01 T03090111  RH  031%=      5-min Rain = 0
KMUS 142030Z 02005KT 31/11 A3019 RMK A01 T03090113  RH  031%=      5-min Rain = 0
KMUS 142035Z 01005KT 31/12 A3019 RMK A01 T03130115  RH  031%=      5-min Rain = 0
KMUS 142040Z 04005KT 32/11 A3019 RMK A01 T03150111  RH  030%=      5-min Rain = 0
KMUS 142045Z 06003KT 31/11 A3018 RMK A01 T03130110  RH  030%=      5-min Rain = 0
KMUS 142050Z 13004KT 31/11 A3018 RMK A01 T03120110  RH  030%=      5-min Rain = 0
KMUS 142055Z 34003KT 32/11 A3017 RMK A01 T03150111  RH  029%=      5-min Rain = 0
KMUS 142100Z 35004KT 32/11 A3017 RMK A01 T03180111  RH  029%=      5-min Rain = 0
KMUS 142105Z 35005KT 32/11 A3017 RMK A01 T03190109  RH  029%=      5-min Rain = 0
KMUS 142110Z 32004KT 32/11 A3017 RMK A01 T03190110  RH  029%=      5-min Rain = 0
KMUS 142115Z 36004KT 32/11 A3016 RMK A01 T03190111  RH  029%=      5-min Rain = 0
KMUS 142120Z 01005KT 32/11 A3016 RMK A01 T03190112  RH  029%=      5-min Rain = 0
KMUS 142125Z 04003KT 32/11 A3016 RMK A01 T03180110  RH  029%=      5-min Rain = 0
KMUS 142130Z 36005KT 32/11 A3016 RMK A01 T03200111  RH  029%=      5-min Rain = 0
KMUS 142135Z 33007KT 32/11 A3015 RMK A01 T03200110  RH  028%=      5-min Rain = 0
KMUS 142140Z 32007KT 32/11 A3015 RMK A01 T03190110  RH  029%=      5-min Rain = 0
KMUS 142145Z 29006KT 32/11 A3015 RMK A01 T03190109  RH  029%=      5-min Rain = 0
KMUS 142150Z 29005G10KT 32/11 A3015 RMK A01 T03220113  RH  029%=      5-min Rain = 0
KMUS 142155Z 33006G13KT 32/11 A3015 RMK A01 T03200111  RH  029%=      5-min Rain = 0
KMUS 142200Z 35005G10KT 32/11 A3015 RMK A01 T03210114  RH  029%=      5-min Rain = 0
KMUS 142205Z 35007KT 32/11 A3014 RMK A01 T03210112  RH  029%=      5-min Rain = 0
KMUS 142210Z 33006KT 32/11 A3014 RMK A01 T03200112  RH  029%=      5-min Rain = 0
KMUS 142215Z 30005KT 32/11 A3014 RMK A01 T03200111  RH  029%=      5-min Rain = 0
KMUS 142220Z 29005KT 32/11 A3014 RMK A01 T03180107  RH  028%=      5-min Rain = 0
KMUS 142225Z 32004KT 32/11 A3014 RMK A01 T03200108  RH  028%=      5-min Rain = 0
KMUS 142230Z 33005KT 32/11 A3013 RMK A01 T03220111  RH  028%=      5-min Rain = 0
KMUS 142235Z 33006KT 32/11 A3014 RMK A01 T03220110  RH  028%=      5-min Rain = 0
KMUS 142240Z 35005KT 32/11 A3014 RMK A01 T03230112  RH  029%=      5-min Rain = 0
KMUS 142245Z 31006G11KT 32/11 A3014 RMK A01 T03240108  RH  028%=      5-min Rain = 0
KMUS 142250Z 33006KT 32/11 A3014 RMK A01 T03240110  RH  028%=      5-min Rain = 0
KMUS 142255Z 31005G10KT 33/11 A3013 RMK A01 T03250112  RH  028%=      5-min Rain = 0
KMUS 142300Z 31007KT 33/11 A3013 RMK A01 T03250109  RH  028%=      5-min Rain = 0
KMUS 142305Z 35006KT 33/11 A3013 RMK A01 T03250112  RH  028%=      5-min Rain = 0
KMUS 142310Z 30003KT 33/11 A3013 RMK A01 T03260112  RH  028%=      5-min Rain = 0
KMUS 142315Z 32005KT 33/11 A3013 RMK A01 T03250112  RH  028%=      5-min Rain = 0
KMUS 142320Z 36003KT 32/11 A3013 RMK A01 T03230110  RH  028%=      5-min Rain = 0
KMUS 142325Z 04003KT 32/11 A3013 RMK A01 T03220110  RH  028%=      5-min Rain = 0
KMUS 142330Z 03004KT 32/11 A3013 RMK A01 T03220107  RH  028%=      5-min Rain = 0
KMUS 142335Z 36003KT 32/11 A3013 RMK A01 T03230105  RH  027%=      5-min Rain = 0
KMUS 142340Z 36002KT 32/10 A3013 RMK A01 T03220104  RH  027%=      5-min Rain = 0
KMUS 142345Z 33003KT 32/11 A3013 RMK A01 T03230110  RH  028%=      5-min Rain = 0
KMUS 142350Z 36002KT 32/11 A3013 RMK A01 T03230105  RH  027%=      5-min Rain = 0
KMUS 142355Z 34003KT 32/11 A3013 RMK A01 T03230107  RH  027%=      5-min Rain = 0
KMUS 150000Z 33004KT 32/11 A3013 RMK A01 T03230109  RH  028%=      5-min Rain = 0
KMUS 150005Z 32003KT 32/11 A3013 RMK A01 T03220108  RH  028%=      5-min Rain = 0
KMUS 150010Z 35005KT 32/11 A3013 RMK A01 T03180114  RH  030%=      5-min Rain = 0
KMUS 150015Z 32005KT 31/12 A3013 RMK A01 T03120116  RH  031%=      5-min Rain = 0
KMUS 150020Z 30005KT 31/12 A3013 RMK A01 T03090115  RH  031%=      5-min Rain = 0
KMUS 150025Z 30004KT 31/12 A3013 RMK A01 T03110117  RH  032%=      5-min Rain = 0
KMUS 150030Z 30004KT 31/11 A3013 RMK A01 T03110111  RH  030%=      5-min Rain = 0
KMUS 150035Z 30005KT 31/12 A3013 RMK A01 T03080121  RH  033%=      5-min Rain = 0
KMUS 150040Z 30005KT 30/13 A3013 RMK A01 T03020128  RH  036%=      5-min Rain = 0
KMUS 150045Z 31005KT 30/13 A3013 RMK A01 T02970132  RH  038%=      5-min Rain = 0
KMUS 150050Z 31004KT 29/13 A3013 RMK A01 T02940132  RH  039%=      5-min Rain = 0
KMUS 150055Z 31004KT 29/14 A3013 RMK A01 T02920135  RH  040%=      5-min Rain = 0
KMUS 150100Z 33004KT 29/14 A3014 RMK A01 T02890140  RH  042%=      5-min Rain = 0
KMUS 150105Z 33003KT 29/14 A3014 RMK A01 T02860141  RH  043%=      5-min Rain = 0
KMUS 150110Z 32004KT 29/15 A3014 RMK A01 T02850145  RH  044%=      5-min Rain = 0
KMUS 150115Z 33003KT 28/15 A3014 RMK A01 T02820146  RH  045%=      5-min Rain = 0
KMUS 150120Z 01001KT 28/15 A3014 RMK A01 T02800149  RH  047%=      5-min Rain = 0
KMUS 150125Z 12005KT 28/16 A3015 RMK A01 T02750157  RH  051%=      5-min Rain = 0
KMUS 150130Z 12006KT 27/14 A3015 RMK A01 T02730141  RH  046%=      5-min Rain = 0
KMUS 150135Z 11005KT 27/14 A3015 RMK A01 T02730138  RH  045%=      5-min Rain = 0
KMUS 150140Z 09005KT 27/14 A3015 RMK A01 T02710142  RH  047%=      5-min Rain = 0
KMUS 150145Z 09004KT 27/14 A3015 RMK A01 T02680141  RH  048%=      5-min Rain = 0
KMUS 150150Z 09003KT 27/14 A3016 RMK A01 T02660141  RH  048%=      5-min Rain = 0
KMUS 150155Z 08002KT 27/15 A3016 RMK A01 T02650145  RH  050%=      5-min Rain = 0
KMUS 150200Z 12004KT 26/14 A3016 RMK A01 T02620142  RH  050%=      5-min Rain = 0
KMUS 150205Z 11003KT 26/14 A3016 RMK A01 T02580139  RH  050%=      5-min Rain = 0
KMUS 150210Z 14004KT 26/14 A3016 RMK A01 T02560136  RH  049%=      5-min Rain = 0
KMUS 150215Z 13004KT 26/13 A3016 RMK A01 T02580132  RH  047%=      5-min Rain = 0
KMUS 150220Z 13004KT 26/14 A3016 RMK A01 T02560137  RH  050%=      5-min Rain = 0
KMUS 150225Z 10004KT 25/14 A3016 RMK A01 T02510137  RH  051%=      5-min Rain = 0
KMUS 150230Z 08005KT 25/13 A3016 RMK A01 T02500128  RH  049%=      5-min Rain = 0
KMUS 150235Z 09004KT 25/12 A3016 RMK A01 T02530124  RH  046%=      5-min Rain = 0
KMUS 150240Z 11006KT 26/12 A3016 RMK A01 T02550123  RH  046%=      5-min Rain = 0
KMUS 150245Z 12005KT 25/12 A3017 RMK A01 T02510124  RH  047%=      5-min Rain = 0
KMUS 150250Z 13004KT 25/13 A3017 RMK A01 T02460126  RH  049%=      5-min Rain = 0
KMUS 150255Z 14004KT 24/13 A3017 RMK A01 T02420129  RH  051%=      5-min Rain = 0
KMUS 150300Z 14005KT 24/13 A3017 RMK A01 T02380127  RH  052%=      5-min Rain = 0
KMUS 150305Z 13005KT 24/13 A3018 RMK A01 T02360128  RH  053%=      5-min Rain = 0
KMUS 150310Z 13006KT 23/13 A3018 RMK A01 T02340128  RH  053%=      5-min Rain = 0
KMUS 150315Z 14007KT 23/13 A3018 RMK A01 T02320125  RH  053%=      5-min Rain = 0
KMUS 150320Z 14006KT 23/13 A3018 RMK A01 T02320125  RH  053%=      5-min Rain = 0
KMUS 150325Z 14006KT 23/13 A3018 RMK A01 T02310126  RH  053%=      5-min Rain = 0
KMUS 150330Z 14007KT 23/13 A3018 RMK A01 T02310126  RH  054%=      5-min Rain = 0
KMUS 150335Z 15007KT 23/13 A3018 RMK A01 T02320126  RH  053%=      5-min Rain = 0
KMUS 150340Z 14008KT 24/12 A3018 RMK A01 T02350124  RH  052%=      5-min Rain = 0
KMUS 150345Z 14008KT 24/12 A3019 RMK A01 T02400123  RH  050%=      5-min Rain = 0
KMUS 150350Z 14008KT 24/12 A3019 RMK A01 T02430123  RH  049%=      5-min Rain = 0
KMUS 150355Z 14008KT 25/12 A3019 RMK A01 T02450122  RH  048%=      5-min Rain = 0
KMUS 150400Z 15007KT 25/12 A3019 RMK A01 T02470123  RH  048%=      5-min Rain = 0
KMUS 150405Z 15007KT 25/12 A3019 RMK A01 T02460123  RH  048%=      5-min Rain = 0
KMUS 150410Z 14008KT 25/12 A3019 RMK A01 T02470122  RH  047%=      5-min Rain = 0
KMUS 150415Z 14007KT 25/12 A3019 RMK A01 T02500121  RH  046%=      5-min Rain = 0
KMUS 150420Z 14007KT 25/12 A3019 RMK A01 T02510121  RH  046%=      5-min Rain = 0
KMUS 150425Z 14007KT 25/12 A3019 RMK A01 T02520121  RH  046%=      5-min Rain = 0
KMUS 150430Z 15008KT 25/12 A3019 RMK A01 T02520121  RH  046%=      5-min Rain = 0
KMUS 150435Z 14008KT 25/12 A3019 RMK A01 T02540120  RH  045%=      5-min Rain = 0
KMUS 150440Z 14009KT 26/12 A3019 RMK A01 T02570120  RH  044%=      5-min Rain = 0
KMUS 150445Z 14009KT 26/12 A3019 RMK A01 T02580120  RH  044%=      5-min Rain = 0
KMUS 150450Z 14008KT 26/12 A3019 RMK A01 T02600120  RH  043%=      5-min Rain = 0
KMUS 150455Z 14009KT 26/12 A3019 RMK A01 T02600119  RH  043%=      5-min Rain = 0

Page generated in 0.009 seconds.